sensor_id;sensor_type;location;lat;lon;timestamp;pressure;altitude;pressure_sealevel;temperature;humidity
2397;BME280;1209;48.410;9.054;2023-04-19T00:00:18;96680.47;;;9.85;100.00
2397;BME280;1209;48.410;9.054;2023-04-19T00:02:44;96689.97;;;9.94;100.00
2397;BME280;1209;48.410;9.054;2023-04-19T00:05:09;96682.94;;;9.86;100.00
2397;BME280;1209;48.410;9.054;2023-04-19T00:07:37;96688.47;;;9.83;100.00
2397;BME280;1209;48.410;9.054;2023-04-19T00:10:03;96682.59;;;9.89;100.00
2397;BME280;1209;48.410;9.054;2023-04-19T00:12:29;96684.56;;;9.87;100.00
2397;BME280;1209;48.410;9.054;2023-04-19T00:14:54;96687.66;;;9.83;100.00
2397;BME280;1209;48.410;9.054;2023-04-19T00:17:19;96678.34;;;9.80;100.00
2397;BME280;1209;48.410;9.054;2023-04-19T00:19:45;96679.16;;;9.72;100.00
2397;BME280;1209;48.410;9.054;2023-04-19T00:22:11;96676.53;;;9.64;100.00
2397;BME280;1209;48.410;9.054;2023-04-19T00:24:36;96678.16;;;9.65;100.00
2397;BME280;1209;48.410;9.054;2023-04-19T00:27:01;96677.50;;;9.63;100.00
2397;BME280;1209;48.410;9.054;2023-04-19T00:29:27;96676.03;;;9.61;100.00
2397;BME280;1209;48.410;9.054;2023-04-19T00:31:53;96668.53;;;9.66;100.00
2397;BME280;1209;48.410;9.054;2023-04-19T00:34:18;96671.78;;;9.60;100.00
2397;BME280;1209;48.410;9.054;2023-04-19T00:36:44;96672.59;;;9.60;100.00
2397;BME280;1209;48.410;9.054;2023-04-19T00:39:09;96660.84;;;9.56;100.00
2397;BME280;1209;48.410;9.054;2023-04-19T00:41:34;96668.84;;;9.55;100.00
2397;BME280;1209;48.410;9.054;2023-04-19T00:44:00;96663.78;;;9.53;100.00
2397;BME280;1209;48.410;9.054;2023-04-19T00:46:25;96666.38;;;9.53;100.00
2397;BME280;1209;48.410;9.054;2023-04-19T00:48:52;96665.25;;;9.56;100.00
2397;BME280;1209;48.410;9.054;2023-04-19T00:51:18;96652.84;;;9.50;100.00
2397;BME280;1209;48.410;9.054;2023-04-19T00:53:44;96660.66;;;9.50;100.00
2397;BME280;1209;48.410;9.054;2023-04-19T00:56:10;96665.25;;;9.56;100.00
2397;BME280;1209;48.410;9.054;2023-04-19T00:58:37;96658.91;;;9.58;100.00
2397;BME280;1209;48.410;9.054;2023-04-19T01:01:03;96654.50;;;9.59;100.00
2397;BME280;1209;48.410;9.054;2023-04-19T01:03:28;96657.78;;;9.61;100.00
2397;BME280;1209;48.410;9.054;2023-04-19T01:05:55;96651.38;;;9.47;100.00
2397;BME280;1209;48.410;9.054;2023-04-19T01:08:21;96645.19;;;9.48;100.00
2397;BME280;1209;48.410;9.054;2023-04-19T01:10:46;96648.63;;;9.49;100.00
2397;BME280;1209;48.410;9.054;2023-04-19T01:13:12;96649.13;;;9.52;100.00
2397;BME280;1209;48.410;9.054;2023-04-19T01:15:37;96652.69;;;9.51;100.00
2397;BME280;1209;48.410;9.054;2023-04-19T01:18:02;96643.69;;;9.45;100.00
2397;BME280;1209;48.410;9.054;2023-04-19T01:20:28;96639.91;;;9.40;100.00
2397;BME280;1209;48.410;9.054;2023-04-19T01:22:53;96637.47;;;9.38;100.00
2397;BME280;1209;48.410;9.054;2023-04-19T01:25:18;96639.91;;;9.40;100.00
2397;BME280;1209;48.410;9.054;2023-04-19T01:27:44;96643.19;;;9.42;100.00
2397;BME280;1209;48.410;9.054;2023-04-19T01:30:10;96637.94;;;9.34;100.00
2397;BME280;1209;48.410;9.054;2023-04-19T01:32:35;96636.50;;;9.39;100.00
2397;BME280;1209;48.410;9.054;2023-04-19T01:35:00;96634.38;;;9.35;100.00
2397;BME280;1209;48.410;9.054;2023-04-19T01:37:26;96633.25;;;9.37;100.00
2397;BME280;1209;48.410;9.054;2023-04-19T01:39:51;96635.50;;;9.32;100.00
2397;BME280;1209;48.410;9.054;2023-04-19T01:42:16;96635.34;;;9.34;100.00
2397;BME280;1209;48.410;9.054;2023-04-19T01:44:42;96634.38;;;9.35;100.00
2397;BME280;1209;48.410;9.054;2023-04-19T01:47:07;96633.06;;;9.31;100.00
2397;BME280;1209;48.410;9.054;2023-04-19T01:49:32;96624.56;;;9.29;100.00
2397;BME280;1209;48.410;9.054;2023-04-19T01:51:58;96625.22;;;9.23;100.00
2397;BME280;1209;48.410;9.054;2023-04-19T01:54:23;96628.00;;;9.29;100.00
2397;BME280;1209;48.410;9.054;2023-04-19T01:56:49;96622.13;;;9.27;100.00
2397;BME280;1209;48.410;9.054;2023-04-19T01:59:14;96619.50;;;9.19;100.00
2397;BME280;1209;48.410;9.054;2023-04-19T02:01:39;96611.53;;;9.21;100.00
2397;BME280;1209;48.410;9.054;2023-04-19T02:04:05;96619.03;;;9.24;100.00
2397;BME280;1209;48.410;9.054;2023-04-19T02:06:31;96621.44;;;9.17;100.00
2397;BME280;1209;48.410;9.054;2023-04-19T02:08:57;96611.03;;;9.25;100.00
2397;BME280;1209;48.410;9.054;2023-04-19T02:11:22;96607.91;;;9.13;100.00
2397;BME280;1209;48.410;9.054;2023-04-19T02:13:48;96602.72;;;9.13;100.00
2397;BME280;1209;48.410;9.054;2023-04-19T02:16:13;96606.78;;;9.16;100.00
2397;BME280;1209;48.410;9.054;2023-04-19T02:18:38;96597.81;;;9.10;100.00
2397;BME280;1209;48.410;9.054;2023-04-19T02:21:05;96596.34;;;9.08;100.00
2397;BME280;1209;48.410;9.054;2023-04-19T02:23:31;96597.97;;;9.09;100.00
2397;BME280;1209;48.410;9.054;2023-04-19T02:25:56;96595.84;;;9.04;100.00
2397;BME280;1209;48.410;9.054;2023-04-19T02:28:22;96596.50;;;9.06;100.00
2397;BME280;1209;48.410;9.054;2023-04-19T02:30:47;96590.28;;;8.99;100.00
2397;BME280;1209;48.410;9.054;2023-04-19T02:33:13;96593.22;;;9.04;100.00
2397;BME280;1209;48.410;9.054;2023-04-19T02:35:39;96597.13;;;9.00;100.00
2397;BME280;1209;48.410;9.054;2023-04-19T02:38:04;96587.81;;;8.98;100.00
2397;BME280;1209;48.410;9.054;2023-04-19T02:40:30;96590.47;;;9.06;100.00
2397;BME280;1209;48.410;9.054;2023-04-19T02:42:55;96591.09;;;9.00;100.00
2397;BME280;1209;48.410;9.054;2023-04-19T02:45:21;96586.84;;;8.99;100.00
2397;BME280;1209;48.410;9.054;2023-04-19T02:47:46;96584.25;;;8.99;100.00
2397;BME280;1209;48.410;9.054;2023-04-19T02:50:13;96590.94;;;9.01;100.00
2397;BME280;1209;48.410;9.054;2023-04-19T02:52:39;96588.94;;;8.95;100.00
2397;BME280;1209;48.410;9.054;2023-04-19T02:55:05;96588.34;;;9.01;100.00
2397;BME280;1209;48.410;9.054;2023-04-19T02:57:31;96585.88;;;9.00;100.00
2397;BME280;1209;48.410;9.054;2023-04-19T02:59:56;96584.59;;;9.04;100.00
2397;BME280;1209;48.410;9.054;2023-04-19T03:02:23;96582.34;;;9.09;100.00
2397;BME280;1209;48.410;9.054;2023-04-19T03:04:48;96579.69;;;9.01;100.00
2397;BME280;1209;48.410;9.054;2023-04-19T03:07:14;96576.03;;;9.28;100.00
2397;BME280;1209;48.410;9.054;2023-04-19T03:09:39;96577.28;;;9.07;100.00
2397;BME280;1209;48.410;9.054;2023-04-19T03:12:06;96579.56;;;9.10;100.00
2397;BME280;1209;48.410;9.054;2023-04-19T03:14:31;96571.91;;;9.09;100.00
2397;BME280;1209;48.410;9.054;2023-04-19T03:16:58;96573.22;;;9.13;100.00
2397;BME280;1209;48.410;9.054;2023-04-19T03:19:23;96570.50;;;9.23;100.00
2397;BME280;1209;48.410;9.054;2023-04-19T03:21:49;96566.44;;;9.36;100.00
2397;BME280;1209;48.410;9.054;2023-04-19T03:24:14;96572.06;;;9.07;100.00
2397;BME280;1209;48.410;9.054;2023-04-19T03:26:39;96574.69;;;9.07;100.00
2397;BME280;1209;48.410;9.054;2023-04-19T03:29:05;96570.31;;;9.16;100.00
2397;BME280;1209;48.410;9.054;2023-04-19T03:31:30;96572.25;;;9.14;100.00
2397;BME280;1209;48.410;9.054;2023-04-19T03:33:56;96570.47;;;9.14;100.00
2397;BME280;1209;48.410;9.054;2023-04-19T03:36:21;96572.72;;;9.09;100.00
2397;BME280;1209;48.410;9.054;2023-04-19T03:38:46;96566.88;;;9.07;100.00
2397;BME280;1209;48.410;9.054;2023-04-19T03:41:25;96572.22;;;9.06;100.00
2397;BME280;1209;48.410;9.054;2023-04-19T03:43:51;96566.06;;;9.15;100.00
2397;BME280;1209;48.410;9.054;2023-04-19T03:46:16;96561.19;;;9.12;100.00
2397;BME280;1209;48.410;9.054;2023-04-19T03:48:42;96558.22;;;9.07;100.00
2397;BME280;1209;48.410;9.054;2023-04-19T03:51:07;96558.72;;;9.02;100.00
2397;BME280;1209;48.410;9.054;2023-04-19T03:53:33;96567.19;;;9.04;100.00
2397;BME280;1209;48.410;9.054;2023-04-19T03:55:58;96549.75;;;9.05;100.00
2397;BME280;1209;48.410;9.054;2023-04-19T03:58:24;96555.72;;;8.97;100.00
2397;BME280;1209;48.410;9.054;2023-04-19T04:00:49;96557.53;;;8.97;100.00
2397;BME280;1209;48.410;9.054;2023-04-19T04:03:16;96557.81;;;8.86;100.00
2397;BME280;1209;48.410;9.054;2023-04-19T04:05:41;96548.22;;;8.86;100.00
2397;BME280;1209;48.410;9.054;2023-04-19T04:08:07;96556.84;;;8.87;100.00
2397;BME280;1209;48.410;9.054;2023-04-19T04:10:32;96558.22;;;8.99;100.00
2397;BME280;1209;48.410;9.054;2023-04-19T04:12:57;96559.03;;;8.99;100.00
2397;BME280;1209;48.410;9.054;2023-04-19T04:15:22;96558.31;;;8.89;100.00
2397;BME280;1209;48.410;9.054;2023-04-19T04:17:49;96567.72;;;8.82;100.00
2397;BME280;1209;48.410;9.054;2023-04-19T04:20:14;96558.28;;;8.81;100.00
2397;BME280;1209;48.410;9.054;2023-04-19T04:22:44;96559.09;;;8.81;100.00
2397;BME280;1209;48.410;9.054;2023-04-19T04:25:13;96560.28;;;8.95;100.00
2397;BME280;1209;48.410;9.054;2023-04-19T04:27:40;96570.97;;;8.84;100.00
2397;BME280;1209;48.410;9.054;2023-04-19T04:30:07;96561.41;;;8.93;100.00
2397;BME280;1209;48.410;9.054;2023-04-19T04:32:33;96561.69;;;8.81;100.00
2397;BME280;1209;48.410;9.054;2023-04-19T04:35:01;96560.69;;;8.74;100.00
2397;BME280;1209;48.410;9.054;2023-04-19T04:37:26;96556.84;;;8.87;100.00
2397;BME280;1209;48.410;9.054;2023-04-19T04:39:52;96565.47;;;8.87;100.00
2397;BME280;1209;48.410;9.054;2023-04-19T04:42:17;96567.25;;;8.87;100.00
2397;BME280;1209;48.410;9.054;2023-04-19T04:44:45;96561.34;;;8.76;100.00
2397;BME280;1209;48.410;9.054;2023-04-19T04:47:12;96561.03;;;8.79;100.00
2397;BME280;1209;48.410;9.054;2023-04-19T04:49:37;96560.44;;;8.94;100.00
2397;BME280;1209;48.410;9.054;2023-04-19T04:52:03;96558.41;;;9.05;100.00
2397;BME280;1209;48.410;9.054;2023-04-19T04:54:28;96559.88;;;9.08;100.00
2397;BME280;1209;48.410;9.054;2023-04-19T04:56:53;96566.47;;;8.94;100.00
2397;BME280;1209;48.410;9.054;2023-04-19T04:59:19;96570.25;;;9.00;100.00
2397;BME280;1209;48.410;9.054;2023-04-19T05:01:44;96558.72;;;9.02;100.00
2397;BME280;1209;48.410;9.054;2023-04-19T05:04:10;96567.69;;;9.16;100.00
2397;BME280;1209;48.410;9.054;2023-04-19T05:06:35;96570.44;;;9.06;100.00
2397;BME280;1209;48.410;9.054;2023-04-19T05:09:01;96575.47;;;9.00;100.00
2397;BME280;1209;48.410;9.054;2023-04-19T05:11:26;96568.09;;;8.95;100.00
2397;BME280;1209;48.410;9.054;2023-04-19T05:13:51;96575.84;;;8.79;100.00
2397;BME280;1209;48.410;9.054;2023-04-19T05:16:17;96569.34;;;8.83;100.00
2397;BME280;1209;48.410;9.054;2023-04-19T05:18:42;96571.97;;;8.83;100.00
2397;BME280;1209;48.410;9.054;2023-04-19T05:21:08;96579.88;;;8.73;100.00
2397;BME280;1209;48.410;9.054;2023-04-19T05:23:35;96578.09;;;8.74;100.00
2397;BME280;1209;48.410;9.054;2023-04-19T05:26:01;96582.50;;;8.73;100.00
2397;BME280;1209;48.410;9.054;2023-04-19T05:28:26;96582.03;;;8.78;100.00
2397;BME280;1209;48.410;9.054;2023-04-19T05:30:51;96587.22;;;8.78;100.00
2397;BME280;1209;48.410;9.054;2023-04-19T05:33:17;96579.94;;;8.81;100.00
2397;BME280;1209;48.410;9.054;2023-04-19T05:35:42;96582.66;;;8.72;100.00
2397;BME280;1209;48.410;9.054;2023-04-19T05:38:07;96579.00;;;8.91;100.00
2397;BME280;1209;48.410;9.054;2023-04-19T05:40:33;96585.78;;;8.83;100.00
2397;BME280;1209;48.410;9.054;2023-04-19T05:42:59;96578.31;;;8.89;100.00
2397;BME280;1209;48.410;9.054;2023-04-19T05:45:25;96578.91;;;8.74;100.00
2397;BME280;1209;48.410;9.054;2023-04-19T05:47:50;96585.59;;;8.77;100.00
2397;BME280;1209;48.410;9.054;2023-04-19T05:50:15;96594.06;;;8.79;100.00
2397;BME280;1209;48.410;9.054;2023-04-19T05:52:42;96585.59;;;8.77;100.00
2397;BME280;1209;48.410;9.054;2023-04-19T05:55:08;96582.00;;;8.70;100.00
2397;BME280;1209;48.410;9.054;2023-04-19T05:57:34;96586.72;;;8.74;100.00
2397;BME280;1209;48.410;9.054;2023-04-19T05:59:59;96583.06;;;8.93;100.00
2397;BME280;1209;48.410;9.054;2023-04-19T06:02:24;96591.66;;;8.86;100.00
2397;BME280;1209;48.410;9.054;2023-04-19T06:04:50;96594.94;;;8.88;100.00
2397;BME280;1209;48.410;9.054;2023-04-19T06:07:15;96599.81;;;8.91;100.00
2397;BME280;1209;48.410;9.054;2023-04-19T06:09:41;96598.50;;;8.87;100.00
2397;BME280;1209;48.410;9.054;2023-04-19T06:12:06;96596.22;;;8.83;100.00
2397;BME280;1209;48.410;9.054;2023-04-19T06:14:31;96597.66;;;8.78;100.00
2397;BME280;1209;48.410;9.054;2023-04-19T06:16:57;96600.91;;;8.80;100.00
2397;BME280;1209;48.410;9.054;2023-04-19T06:19:22;96601.72;;;8.80;100.00
2397;BME280;1209;48.410;9.054;2023-04-19T06:21:48;96599.50;;;8.94;100.00
2397;BME280;1209;48.410;9.054;2023-04-19T06:24:13;96605.69;;;8.93;100.00
2397;BME280;1209;48.410;9.054;2023-04-19T06:26:39;96604.56;;;8.95;100.00
2397;BME280;1209;48.410;9.054;2023-04-19T06:29:04;96608.63;;;8.98;100.00
2397;BME280;1209;48.410;9.054;2023-04-19T06:31:30;96604.47;;;9.05;100.00
2397;BME280;1209;48.410;9.054;2023-04-19T06:33:56;96592.75;;;9.09;100.00
2397;BME280;1209;48.410;9.054;2023-04-19T06:36:21;96596.22;;;9.26;100.00
2397;BME280;1209;48.410;9.054;2023-04-19T06:38:46;96597.38;;;9.23;100.00
2397;BME280;1209;48.410;9.054;2023-04-19T06:41:12;96594.88;;;9.13;100.00
2397;BME280;1209;48.410;9.054;2023-04-19T06:43:37;96602.22;;;9.10;100.00
2397;BME280;1209;48.410;9.054;2023-04-19T06:46:05;96593.72;;;9.08;100.00
2397;BME280;1209;48.410;9.054;2023-04-19T06:48:30;96590.66;;;9.12;100.00
2397;BME280;1209;48.410;9.054;2023-04-19T06:50:56;96591.66;;;9.20;100.00
2397;BME280;1209;48.410;9.054;2023-04-19T06:53:22;96589.88;;;9.28;100.00
2397;BME280;1209;48.410;9.054;2023-04-19T06:55:47;96597.03;;;9.18;100.00
2397;BME280;1209;48.410;9.054;2023-04-19T06:58:13;96602.25;;;9.26;100.00
2397;BME280;1209;48.410;9.054;2023-04-19T07:00:38;96606.00;;;9.24;100.00
2397;BME280;1209;48.410;9.054;2023-04-19T07:03:03;96596.53;;;9.14;100.00
2397;BME280;1209;48.410;9.054;2023-04-19T07:05:30;96606.47;;;9.19;100.00
2397;BME280;1209;48.410;9.054;2023-04-19T07:07:56;96606.97;;;9.23;100.00
2397;BME280;1209;48.410;9.054;2023-04-19T07:10:21;96595.25;;;9.27;100.00
2397;BME280;1209;48.410;9.054;2023-04-19T07:12:46;96601.16;;;9.37;100.00
2397;BME280;1209;48.410;9.054;2023-04-19T07:15:12;96602.28;;;9.42;100.00
2397;BME280;1209;48.410;9.054;2023-04-19T07:17:37;96594.97;;;9.38;100.00
2397;BME280;1209;48.410;9.054;2023-04-19T07:20:03;96595.81;;;9.46;100.00
2397;BME280;1209;48.410;9.054;2023-04-19T07:22:31;96594.84;;;9.48;100.00
2397;BME280;1209;48.410;9.054;2023-04-19T07:24:56;96589.09;;;9.44;100.00
2397;BME280;1209;48.410;9.054;2023-04-19T07:27:22;96590.09;;;9.43;100.00
2397;BME280;1209;48.410;9.054;2023-04-19T07:29:48;96590.44;;;9.48;100.00
2397;BME280;1209;48.410;9.054;2023-04-19T07:32:13;96590.31;;;9.58;100.00
2397;BME280;1209;48.410;9.054;2023-04-19T07:34:39;96581.50;;;9.67;100.00
2397;BME280;1209;48.410;9.054;2023-04-19T07:37:06;96586.25;;;9.71;100.00
2397;BME280;1209;48.410;9.054;2023-04-19T07:39:31;96582.00;;;9.70;100.00
2397;BME280;1209;48.410;9.054;2023-04-19T07:41:57;96588.34;;;9.68;100.00
2397;BME280;1209;48.410;9.054;2023-04-19T07:44:22;96591.28;;;9.65;100.00
2397;BME280;1209;48.410;9.054;2023-04-19T07:46:48;96584.94;;;9.67;100.00
2397;BME280;1209;48.410;9.054;2023-04-19T07:49:14;96579.22;;;9.64;100.00
2397;BME280;1209;48.410;9.054;2023-04-19T07:51:39;96591.44;;;9.63;100.00
2397;BME280;1209;48.410;9.054;2023-04-19T07:54:05;96586.41;;;9.70;100.00
2397;BME280;1209;48.410;9.054;2023-04-19T07:56:31;96588.50;;;9.58;100.00
2397;BME280;1209;48.410;9.054;2023-04-19T07:58:56;96593.41;;;9.61;100.00
2397;BME280;1209;48.410;9.054;2023-04-19T08:01:21;96581.16;;;9.54;100.00
2397;BME280;1209;48.410;9.054;2023-04-19T08:03:47;96589.47;;;9.57;100.00
2397;BME280;1209;48.410;9.054;2023-04-19T08:06:12;96582.16;;;9.53;100.00
2397;BME280;1209;48.410;9.054;2023-04-19T08:08:38;96588.19;;;9.61;100.00
2397;BME280;1209;48.410;9.054;2023-04-19T08:11:04;96582.50;;;9.66;100.00
2397;BME280;1209;48.410;9.054;2023-04-19T08:13:30;96582.81;;;9.79;100.00
2397;BME280;1209;48.410;9.054;2023-04-19T08:15:55;96579.06;;;9.90;100.00
2397;BME280;1209;48.410;9.054;2023-04-19T08:18:21;96573.88;;;9.90;100.00
2397;BME280;1209;48.410;9.054;2023-04-19T08:20:46;96575.03;;;9.95;100.00
2397;BME280;1209;48.410;9.054;2023-04-19T08:23:13;96571.78;;;9.93;100.00
2397;BME280;1209;48.410;9.054;2023-04-19T08:25:39;96569.66;;;10.05;100.00
2397;BME280;1209;48.410;9.054;2023-04-19T08:28:04;96567.50;;;9.92;100.00
2397;BME280;1209;48.410;9.054;2023-04-19T08:30:30;96574.88;;;10.05;100.00
2397;BME280;1209;48.410;9.054;2023-04-19T08:32:56;96570.94;;;9.93;100.00
2397;BME280;1209;48.410;9.054;2023-04-19T08:35:21;96571.94;;;10.00;100.00
2397;BME280;1209;48.410;9.054;2023-04-19T08:37:47;96576.31;;;10.07;100.00
2397;BME280;1209;48.410;9.054;2023-04-19T08:40:13;96570.16;;;10.25;100.00
2397;BME280;1209;48.410;9.054;2023-04-19T08:42:39;96575.66;;;10.14;100.00
2397;BME280;1209;48.410;9.054;2023-04-19T08:45:05;96571.47;;;10.21;100.00
2397;BME280;1209;48.410;9.054;2023-04-19T08:47:32;96573.91;;;10.22;100.00
2397;BME280;1209;48.410;9.054;2023-04-19T08:49:59;96567.34;;;10.34;100.00
2397;BME280;1209;48.410;9.054;2023-04-19T08:52:26;96572.75;;;10.49;100.00
2397;BME280;1209;48.410;9.054;2023-04-19T08:54:53;96569.31;;;10.49;100.00
2397;BME280;1209;48.410;9.054;2023-04-19T08:57:19;96570.78;;;10.43;100.00
2397;BME280;1209;48.410;9.054;2023-04-19T08:59:44;96569.00;;;10.44;100.00
2397;BME280;1209;48.410;9.054;2023-04-19T09:02:13;96568.31;;;10.58;100.00
2397;BME280;1209;48.410;9.054;2023-04-19T09:04:40;96565.69;;;10.66;100.00
2397;BME280;1209;48.410;9.054;2023-04-19T09:07:05;96566.78;;;10.80;100.00
2397;BME280;1209;48.410;9.054;2023-04-19T09:09:32;96558.53;;;11.07;100.00
2397;BME280;1209;48.410;9.054;2023-04-19T09:11:58;96557.06;;;11.04;100.00
2397;BME280;1209;48.410;9.054;2023-04-19T09:14:24;96564.47;;;11.24;100.00
2397;BME280;1209;48.410;9.054;2023-04-19T09:16:50;96552.53;;;11.29;100.00
2397;BME280;1209;48.410;9.054;2023-04-19T09:19:16;96552.00;;;11.34;100.00
2397;BME280;1209;48.410;9.054;2023-04-19T09:21:42;96560.19;;;11.31;100.00
2397;BME280;1209;48.410;9.054;2023-04-19T09:24:08;96549.78;;;11.23;100.00
2397;BME280;1209;48.410;9.054;2023-04-19T09:26:34;96552.44;;;11.15;100.00
2397;BME280;1209;48.410;9.054;2023-04-19T09:29:05;96551.06;;;11.27;100.00
2397;BME280;1209;48.410;9.054;2023-04-19T09:31:35;96549.81;;;11.15;100.00
2397;BME280;1209;48.410;9.054;2023-04-19T09:34:17;96543.09;;;11.20;100.00
2397;BME280;1209;48.410;9.054;2023-04-19T09:36:43;96540.19;;;11.15;100.00
2397;BME280;1209;48.410;9.054;2023-04-19T09:39:08;96537.06;;;11.51;100.00
2397;BME280;1209;48.410;9.054;2023-04-19T09:41:50;96528.69;;;11.78;100.00
2397;BME280;1209;48.410;9.054;2023-04-19T09:44:15;96527.72;;;11.79;100.00
2397;BME280;1209;48.410;9.054;2023-04-19T09:46:41;96530.66;;;11.53;100.00
2397;BME280;1209;48.410;9.054;2023-04-19T09:51:49;96522.66;;;11.78;100.00
2397;BME280;1209;48.410;9.054;2023-04-19T09:54:16;96524.78;;;11.74;100.00
2397;BME280;1209;48.410;9.054;2023-04-19T09:56:43;96516.31;;;11.95;100.00
2397;BME280;1209;48.410;9.054;2023-04-19T09:59:09;96525.09;;;11.79;100.00
2397;BME280;1209;48.410;9.054;2023-04-19T10:01:39;96514.38;;;11.66;100.00
2397;BME280;1209;48.410;9.054;2023-04-19T10:04:09;96512.19;;;11.55;100.00
2397;BME280;1209;48.410;9.054;2023-04-19T10:06:35;96510.25;;;11.72;100.00
2397;BME280;1209;48.410;9.054;2023-04-19T10:09:02;96507.53;;;11.65;100.00
2397;BME280;1209;48.410;9.054;2023-04-19T10:11:31;96505.53;;;11.67;100.00
2397;BME280;1209;48.410;9.054;2023-04-19T10:14:04;96509.59;;;11.70;100.00
2397;BME280;1209;48.410;9.054;2023-04-19T10:16:31;96510.16;;;11.88;100.00
2397;BME280;1209;48.410;9.054;2023-04-19T10:18:57;96512.44;;;11.91;100.00
2397;BME280;1209;48.410;9.054;2023-04-19T10:21:26;96512.47;;;11.60;100.00
2397;BME280;1209;48.410;9.054;2023-04-19T10:23:51;96508.53;;;11.33;100.00
2397;BME280;1209;48.410;9.054;2023-04-19T10:26:17;96506.06;;;11.62;100.00
2397;BME280;1209;48.410;9.054;2023-04-19T10:28:42;96509.50;;;11.63;100.00
2397;BME280;1209;48.410;9.054;2023-04-19T10:31:11;96503.28;;;11.64;100.00
2397;BME280;1209;48.410;9.054;2023-04-19T10:33:37;96507.81;;;11.70;100.00
2397;BME280;1209;48.410;9.054;2023-04-19T10:36:03;96498.25;;;11.85;100.00
2397;BME280;1209;48.410;9.054;2023-04-19T10:41:01;96505.56;;;11.90;100.00
2397;BME280;1209;48.410;9.054;2023-04-19T10:43:32;96493.28;;;11.90;100.00
2397;BME280;1209;48.410;9.054;2023-04-19T10:46:08;96493.03;;;12.00;100.00
2397;BME280;1209;48.410;9.054;2023-04-19T10:48:39;96484.34;;;12.37;100.00
2397;BME280;1209;48.410;9.054;2023-04-19T10:51:15;96476.72;;;12.72;100.00
2397;BME280;1209;48.410;9.054;2023-04-19T11:04:18;96456.06;;;14.26;100.00
2397;BME280;1209;48.410;9.054;2023-04-19T11:11:56;96438.53;;;14.05;100.00
2397;BME280;1209;48.410;9.054;2023-04-19T11:14:22;96439.06;;;13.45;100.00
2397;BME280;1209;48.410;9.054;2023-04-19T11:16:48;96441.13;;;13.28;100.00
2397;BME280;1209;48.410;9.054;2023-04-19T11:19:17;96441.31;;;13.48;100.00
2397;BME280;1209;48.410;9.054;2023-04-19T11:21:46;96437.56;;;13.36;100.00
2397;BME280;1209;48.410;9.054;2023-04-19T11:24:12;96433.97;;;13.22;100.00
2397;BME280;1209;48.410;9.054;2023-04-19T11:26:41;96426.13;;;13.07;100.00
2397;BME280;1209;48.410;9.054;2023-04-19T11:29:06;96430.25;;;13.16;100.00
2397;BME280;1209;48.410;9.054;2023-04-19T11:31:32;96430.25;;;13.52;100.00
2397;BME280;1209;48.410;9.054;2023-04-19T11:33:58;96426.06;;;13.37;100.00
2397;BME280;1209;48.410;9.054;2023-04-19T11:36:24;96415.59;;;13.37;100.00
2397;BME280;1209;48.410;9.054;2023-04-19T11:38:51;96414.00;;;13.42;100.00
2397;BME280;1209;48.410;9.054;2023-04-19T11:41:16;96413.22;;;13.70;100.00
2397;BME280;1209;48.410;9.054;2023-04-19T11:43:42;96410.94;;;13.60;100.00
2397;BME280;1209;48.410;9.054;2023-04-19T11:46:10;96408.94;;;13.62;100.00
2397;BME280;1209;48.410;9.054;2023-04-19T11:48:37;96408.41;;;14.01;100.00
2397;BME280;1209;48.410;9.054;2023-04-19T11:51:03;96405.91;;;13.86;100.00
2397;BME280;1209;48.410;9.054;2023-04-19T11:53:31;96395.63;;;13.92;100.00
2397;BME280;1209;48.410;9.054;2023-04-19T11:56:02;96396.69;;;13.97;100.00
2397;BME280;1209;48.410;9.054;2023-04-19T12:00:56;96388.06;;;14.10;100.00
2397;BME280;1209;48.410;9.054;2023-04-19T12:03:22;96387.56;;;13.93;100.00
2397;BME280;1209;48.410;9.054;2023-04-19T12:05:52;96387.44;;;13.73;100.00
2397;BME280;1209;48.410;9.054;2023-04-19T12:08:29;96383.19;;;14.07;100.00
2397;BME280;1209;48.410;9.054;2023-04-19T12:10:57;96381.28;;;14.22;100.00
2397;BME280;1209;48.410;9.054;2023-04-19T12:13:24;96375.13;;;13.74;100.00
2397;BME280;1209;48.410;9.054;2023-04-19T12:15:50;96369.28;;;13.78;100.00
2397;BME280;1209;48.410;9.054;2023-04-19T12:18:15;96377.06;;;13.65;100.00
2397;BME280;1209;48.410;9.054;2023-04-19T12:20:45;96376.88;;;13.67;100.00
2397;BME280;1209;48.410;9.054;2023-04-19T12:23:12;96369.19;;;13.65;100.00
2397;BME280;1209;48.410;9.054;2023-04-19T12:25:42;96370.06;;;13.72;100.00
2397;BME280;1209;48.410;9.054;2023-04-19T12:28:08;96363.66;;;13.81;100.00
2397;BME280;1209;48.410;9.054;2023-04-19T12:30:36;96369.00;;;13.67;100.00
2397;BME280;1209;48.410;9.054;2023-04-19T12:33:01;96364.69;;;13.59;100.00
2397;BME280;1209;48.410;9.054;2023-04-19T12:35:27;96366.22;;;13.47;100.00
2397;BME280;1209;48.410;9.054;2023-04-19T12:37:53;96371.56;;;13.32;100.00
2397;BME280;1209;48.410;9.054;2023-04-19T12:40:19;96366.22;;;13.47;100.00
2397;BME280;1209;48.410;9.054;2023-04-19T12:42:45;96370.91;;;13.51;100.00
2397;BME280;1209;48.410;9.054;2023-04-19T12:45:11;96357.91;;;13.01;100.00
2397;BME280;1209;48.410;9.054;2023-04-19T12:47:37;96362.63;;;13.27;100.00
2397;BME280;1209;48.410;9.054;2023-04-19T12:50:03;96349.94;;;12.87;100.00
2397;BME280;1209;48.410;9.054;2023-04-19T12:52:28;96356.47;;;12.98;100.00
2397;BME280;1209;48.410;9.054;2023-04-19T12:54:53;96359.06;;;12.77;100.00
2397;BME280;1209;48.410;9.054;2023-04-19T12:57:19;96354.28;;;13.02;100.00
2397;BME280;1209;48.410;9.054;2023-04-19T12:59:44;96353.47;;;12.80;100.00
2397;BME280;1209;48.410;9.054;2023-04-19T13:02:09;96368.03;;;12.68;100.00
2397;BME280;1209;48.410;9.054;2023-04-19T13:04:35;96364.84;;;12.51;100.00
2397;BME280;1209;48.410;9.054;2023-04-19T13:07:00;96355.47;;;12.42;100.00
2397;BME280;1209;48.410;9.054;2023-04-19T13:09:27;96361.16;;;12.16;100.00
2397;BME280;1209;48.410;9.054;2023-04-19T13:11:56;96355.59;;;12.04;100.00
2397;BME280;1209;48.410;9.054;2023-04-19T13:14:22;96349.34;;;12.05;100.00
2397;BME280;1209;48.410;9.054;2023-04-19T13:16:48;96357.56;;;11.87;100.00
2397;BME280;1209;48.410;9.054;2023-04-19T13:19:13;96361.88;;;11.80;100.00
2397;BME280;1209;48.410;9.054;2023-04-19T13:21:38;96354.88;;;11.58;100.00
2397;BME280;1209;48.410;9.054;2023-04-19T13:24:04;96354.63;;;11.67;100.00
2397;BME280;1209;48.410;9.054;2023-04-19T13:26:29;96357.06;;;11.54;100.00
2397;BME280;1209;48.410;9.054;2023-04-19T13:28:55;96356.78;;;11.49;100.00
2397;BME280;1209;48.410;9.054;2023-04-19T13:31:20;96350.09;;;11.47;100.00
2397;BME280;1209;48.410;9.054;2023-04-19T13:33:46;96355.31;;;11.47;100.00